Time;durP1;ratioP1;P1;durP2;ratioP2;P2;SDS_P1;SDS_P2;PMS_P1;PMS_P2;Temp;Humidity;BMP_temperature;BMP_pressure;BME280_temperature;BME280_humidity;BME280_pressure;Samples;Min_cycle;Max_cycle;Signal;HPM_P1;HPM_P2
2023/07/06 00:01:00;;;;;;;;;6.50;5.25;;;;;-143.57;100.00;65101.44;5017356;28;45460;-45
2023/07/06 00:03:26;;;;;;;;;6.50;6.50;;;;;-143.57;100.00;65101.44;5016420;28;45276;-45
2023/07/06 00:05:51;;;;;;;;;7.25;6.00;;;;;-143.57;100.00;65101.44;5016977;28;45454;-52
2023/07/06 00:08:17;;;;;;;;;5.75;5.75;;;;;-143.57;100.00;65101.44;5017057;28;45379;-42
2023/07/06 00:10:43;;;;;;;;;6.50;5.00;;;;;-143.57;100.00;65101.44;5017002;28;45322;-41
2023/07/06 00:13:09;;;;;;;;;5.00;4.00;;;;;-143.57;100.00;65101.44;5017345;28;45372;-42
2023/07/06 00:15:35;;;;;;;;;5.25;4.75;;;;;-143.57;100.00;65101.44;4999223;28;46346;-53
2023/07/06 00:18:05;;;;;;;;;5.25;5.25;;;;;-143.57;100.00;65101.44;5016837;28;45477;-45
2023/07/06 00:20:32;;;;;;;;;6.75;6.00;;;;;-143.57;100.00;65101.44;5016578;28;45397;-44
2023/07/06 00:22:58;;;;;;;;;4.25;4.25;;;;;-143.57;100.00;65101.44;5017138;28;45354;-44
2023/07/06 00:25:25;;;;;;;;;5.50;5.00;;;;;-143.57;100.00;65101.44;5016900;28;45569;-46
2023/07/06 00:27:52;;;;;;;;;7.00;4.50;;;;;-143.57;100.00;65101.44;5016839;28;45444;-49
2023/07/06 00:30:18;;;;;;;;;6.25;6.25;;;;;-143.57;100.00;65101.44;5017054;28;45347;-42
2023/07/06 00:32:47;;;;;;;;;5.25;5.00;;;;;-143.57;100.00;65101.44;5016872;28;45340;-54
2023/07/06 00:35:15;;;;;;;;;10.75;7.50;;;;;-143.57;100.00;65101.44;5016655;28;47098;-44
2023/07/06 00:37:41;;;;;;;;;9.75;8.50;;;;;-143.57;100.00;65101.44;5016626;28;45939;-51
2023/07/06 00:40:13;;;;;;;;;9.00;5.50;;;;;-143.57;100.00;65101.44;4999234;28;45366;-46
2023/07/06 00:42:39;;;;;;;;;6.50;6.50;;;;;-143.57;100.00;65101.44;5016290;28;45597;-49
2023/07/06 00:45:08;;;;;;;;;5.25;5.25;;;;;-143.57;100.00;65101.44;5016763;28;46393;-47
2023/07/06 00:47:39;;;;;;;;;6.50;6.00;;;;;-143.57;100.00;65101.44;5016755;28;45483;-53
2023/07/06 00:50:10;;;;;;;;;7.00;7.00;;;;;-143.57;100.00;65101.44;5016732;28;45387;-53
2023/07/06 00:52:42;;;;;;;;;8.75;5.25;;;;;-143.57;100.00;65101.44;5016791;28;45300;-55
2023/07/06 00:55:10;;;;;;;;;13.25;9.25;;;;;-143.57;100.00;65101.44;5016386;28;45386;-43
2023/07/06 00:57:38;;;;;;;;;9.25;7.75;;;;;-143.57;100.00;65101.44;5016558;28;45451;-45
2023/07/06 01:00:07;;;;;;;;;8.25;8.25;;;;;-143.57;100.00;65101.44;5016213;28;45429;-43
2023/07/06 01:02:38;;;;;;;;;8.75;8.00;;;;;-143.57;100.00;65101.44;4999065;28;45296;-47
2023/07/06 01:05:05;;;;;;;;;12.00;7.75;;;;;-143.57;100.00;65101.44;5016149;28;46466;-48
2023/07/06 01:07:32;;;;;;;;;13.00;6.75;;;;;-143.57;100.00;65101.44;5016273;28;45390;-47
2023/07/06 01:09:58;;;;;;;;;7.25;5.50;;;;;-143.57;100.00;65101.44;5016268;28;45425;-44
2023/07/06 01:12:24;;;;;;;;;7.25;5.00;;;;;-143.57;100.00;65101.44;5016388;28;45396;-44
2023/07/06 01:14:51;;;;;;;;;6.00;6.00;;;;;-143.57;100.00;65101.44;5018421;28;50395;-57
2023/07/06 01:17:29;;;;;;;;;8.50;7.00;;;;;-143.57;100.00;65101.44;5019635;28;45432;-45
2023/07/06 01:20:03;;;;;;;;;3.75;2.50;;;;;-143.57;100.00;65101.44;5019989;28;45296;-47
2023/07/06 01:22:50;;;;;;;;;9.67;6.67;;;;;-143.57;100.00;65101.44;5019871;28;45322;-48
2023/07/06 01:25:45;;;;;;;;;9.00;5.75;;;;;-143.57;100.00;65101.44;5019249;28;46587;-46
2023/07/06 01:28:21;;;;;;;;;8.25;6.00;;;;;-143.57;100.00;65101.44;4977211;28;45380;-58
2023/07/06 01:31:17;;;;;;;;;10.50;5.25;;;;;-143.57;100.00;65101.44;4977970;28;45260;-53
2023/07/06 01:34:01;;;;;;;;;6.25;5.50;;;;;-143.57;100.00;65101.44;4977947;28;45534;-52
2023/07/06 01:36:42;;;;;;;;;5.00;5.00;;;;;-143.57;100.00;65101.44;4977589;28;46132;-45
2023/07/06 01:39:20;;;;;;;;;6.00;4.25;;;;;-143.57;100.00;65101.44;4977403;28;45358;-52
2023/07/06 01:41:59;;;;;;;;;7.00;5.00;;;;;-143.57;100.00;65101.44;4977772;28;45383;-45
2023/07/06 01:44:25;;;;;;;;;8.25;4.50;;;;;-143.57;100.00;65101.44;4977825;28;45320;-43
2023/07/06 01:46:53;;;;;;;;;2.25;2.25;;;;;-143.57;100.00;65101.44;4977349;28;46628;-47
2023/07/06 01:49:19;;;;;;;;;6.50;5.00;;;;;-143.57;100.00;65101.44;4976796;28;45373;-51
2023/07/06 01:52:06;;;;;;;;;4.00;4.00;;;;;-143.57;100.00;65101.44;4977718;28;45476;-54
2023/07/06 01:54:39;;;;;;;;;6.25;5.00;;;;;-143.57;100.00;65101.44;4977845;28;45604;-52
2023/07/06 01:57:13;;;;;;;;;11.75;7.00;;;;;-143.57;100.00;65101.44;4977341;28;46183;-55
2023/07/06 01:59:46;;;;;;;;;6.00;6.00;;;;;-143.57;100.00;65101.44;4977347;28;45523;-47
2023/07/06 02:02:13;;;;;;;;;5.50;4.50;;;;;-143.57;100.00;65101.44;4977364;28;45299;-46
2023/07/06 02:04:43;;;;;;;;;5.00;5.00;;;;;-143.57;100.00;65101.44;4999501;28;45360;-56
2023/07/06 02:07:11;;;;;;;;;9.50;4.50;;;;;-143.57;100.00;65101.44;5018905;28;46269;-43
2023/07/06 02:09:47;;;;;;;;;6.50;4.50;;;;;-143.57;100.00;65101.44;5018786;28;45382;-44
2023/07/06 02:12:13;;;;;;;;;4.75;3.25;;;;;-143.57;100.00;65101.44;5018904;28;45290;-43
2023/07/06 02:14:41;;;;;;;;;10.00;4.00;;;;;-143.57;100.00;65101.44;5018928;28;45407;-43
2023/07/06 02:17:07;;;;;;;;;5.25;4.00;;;;;-143.57;100.00;65101.44;5017833;28;45360;-45
2023/07/06 02:19:35;;;;;;;;;7.25;7.25;;;;;-143.57;100.00;65101.44;5017515;28;45335;-46
2023/07/06 02:22:03;;;;;;;;;6.25;5.00;;;;;-143.57;100.00;65101.44;5018803;28;45280;-44
2023/07/06 02:24:30;;;;;;;;;9.50;4.75;;;;;-143.57;100.00;65101.44;5018469;28;45188;-45
2023/07/06 02:26:55;;;;;;;;;6.00;6.00;;;;;-143.57;100.00;65101.44;5017778;28;46295;-44
2023/07/06 02:29:22;;;;;;;;;8.25;5.00;;;;;-143.57;100.00;65101.44;5018603;28;45243;-42
2023/07/06 02:31:48;;;;;;;;;7.00;5.50;;;;;-143.57;100.00;65101.44;5018716;28;45342;-41
2023/07/06 02:34:14;;;;;;;;;7.25;5.25;;;;;-143.57;100.00;65101.44;5018698;28;45377;-40
2023/07/06 02:36:39;;;;;;;;;6.00;6.00;;;;;-143.57;100.00;65101.44;5018456;28;46293;-42
2023/07/06 02:39:05;;;;;;;;;5.75;5.75;;;;;-143.57;100.00;65101.44;5018183;28;45398;-45
2023/07/06 02:41:31;;;;;;;;;7.00;5.75;;;;;-143.57;100.00;65101.44;5018293;28;45433;-46
2023/07/06 02:43:56;;;;;;;;;6.00;5.00;;;;;-143.57;100.00;65101.44;5018466;28;45400;-45
2023/07/06 02:46:22;;;;;;;;;6.25;5.00;;;;;-143.57;100.00;65101.44;5018108;28;45342;-46
2023/07/06 02:48:50;;;;;;;;;7.50;4.75;;;;;-143.57;100.00;65101.44;5018363;28;45335;-43
2023/07/06 02:51:16;;;;;;;;;8.50;7.25;;;;;-143.57;100.00;65101.44;5017482;28;45386;-45
2023/07/06 02:53:41;;;;;;;;;4.75;4.75;;;;;-143.57;100.00;65101.44;5018109;28;45168;-44
2023/07/06 02:56:07;;;;;;;;;8.00;7.00;;;;;-143.57;100.00;65101.44;5017982;28;46318;-42
2023/07/06 02:58:34;;;;;;;;;10.75;5.00;;;;;-143.57;100.00;65101.44;5017996;28;45453;-43
2023/07/06 03:01:00;;;;;;;;;9.00;6.50;;;;;-143.57;100.00;65101.44;5017275;28;45298;-47
2023/07/06 03:03:26;;;;;;;;;6.75;5.00;;;;;-143.57;100.00;65101.44;5000597;28;45349;-42
2023/07/06 03:05:52;;;;;;;;;4.00;4.00;;;;;-143.57;100.00;65101.44;5017979;28;46250;-41
2023/07/06 03:08:17;;;;;;;;;10.00;7.50;;;;;-143.57;100.00;65101.44;5018279;28;45410;-41
2023/07/06 03:10:46;;;;;;;;;7.25;5.00;;;;;-143.57;100.00;65101.44;5017938;28;45411;-41
2023/07/06 03:13:15;;;;;;;;;7.50;5.50;;;;;-143.57;100.00;65101.44;5018399;28;45362;-45
2023/07/06 03:15:41;;;;;;;;;6.75;5.75;;;;;-143.57;100.00;65101.44;5017480;28;45650;-43
2023/07/06 03:18:07;;;;;;;;;5.00;5.00;;;;;-143.57;100.00;65101.44;5017602;28;45410;-43
2023/07/06 03:20:36;;;;;;;;;9.25;7.00;;;;;-143.57;100.00;65101.44;5017987;28;45243;-44
2023/07/06 03:23:02;;;;;;;;;7.25;7.25;;;;;-143.57;100.00;65101.44;5017801;28;45526;-43
2023/07/06 03:25:33;;;;;;;;;6.75;6.75;;;;;-143.57;100.00;65101.44;4999711;28;46465;-43
2023/07/06 03:27:59;;;;;;;;;7.75;5.00;;;;;-143.57;100.00;65101.44;5017843;28;45273;-44
2023/07/06 03:30:28;;;;;;;;;9.75;6.00;;;;;-143.57;100.00;65101.44;5018163;28;45504;-42
2023/07/06 03:32:54;;;;;;;;;7.00;6.00;;;;;-143.57;100.00;65101.44;5018066;28;45381;-50
2023/07/06 03:35:24;;;;;;;;;7.25;5.75;;;;;-143.57;100.00;65101.44;5017621;28;46417;-42
2023/07/06 03:37:50;;;;;;;;;10.33;7.33;;;;;-143.57;100.00;65101.44;5017200;28;45344;-45
2023/07/06 03:40:16;;;;;;;;;7.00;7.00;;;;;-143.57;100.00;65101.44;5017437;28;45397;-45
2023/07/06 03:42:45;;;;;;;;;13.67;10.00;;;;;-143.57;100.00;65101.44;5017323;28;45558;-41
2023/07/06 03:45:15;;;;;;;;;12.67;10.67;;;;;-143.57;100.00;65101.44;5017098;28;46142;-42
2023/07/06 03:47:42;;;;;;;;;14.00;13.00;;;;;-143.57;100.00;65101.44;5017415;28;45433;-42
2023/07/06 03:50:09;;;;;;;;;16.00;14.33;;;;;-143.57;100.00;65101.44;5017545;28;45343;-43
2023/07/06 03:52:37;;;;;;;;;15.67;12.33;;;;;-143.57;100.00;65101.44;5016544;28;45464;-45
2023/07/06 03:55:12;;;;;;;;;11.67;11.00;;;;;-143.57;100.00;65101.44;5016936;28;47265;-43
2023/07/06 03:57:37;;;;;;;;;14.33;11.33;;;;;-143.57;100.00;65101.44;5017033;28;45508;-42
2023/07/06 04:00:10;;;;;;;;;15.00;11.67;;;;;-143.57;100.00;65101.44;5016991;28;45251;-42
2023/07/06 04:02:35;;;;;;;;;12.00;10.33;;;;;-143.57;100.00;65101.44;5017323;28;45517;-57
2023/07/06 04:05:00;;;;;;;;;10.00;7.00;;;;;-143.57;100.00;65101.44;5016757;28;49475;-42
2023/07/06 04:07:26;;;;;;;;;14.33;11.67;;;;;-143.57;100.00;65101.44;5016919;28;45238;-45
2023/07/06 04:09:51;;;;;;;;;13.00;10.33;;;;;-143.57;100.00;65101.44;5016821;28;45387;-51
2023/07/06 04:12:16;;;;;;;;;12.67;9.33;;;;;-143.57;100.00;65101.44;5017146;28;45336;-52
2023/07/06 04:14:43;;;;;;;;;15.67;10.33;;;;;-143.57;100.00;65101.44;5016856;28;46011;-50
2023/07/06 04:17:08;;;;;;;;;19.00;13.00;;;;;-143.57;100.00;65101.44;4996992;28;45218;-43
2023/07/06 04:19:35;;;;;;;;;18.00;13.00;;;;;-143.57;100.00;65101.44;4996153;28;45326;-59
2023/07/06 04:22:00;;;;;;;;;14.67;11.33;;;;;-143.57;100.00;65101.44;4997468;28;45373;-50
2023/07/06 04:24:31;;;;;;;;;15.33;12.00;;;;;-143.57;100.00;65101.44;4996820;28;45167;-62
2023/07/06 04:26:57;;;;;;;;;10.00;10.00;;;;;-143.57;100.00;65101.44;4996694;28;45408;-63
2023/07/06 04:29:22;;;;;;;;;15.67;11.00;;;;;-143.57;100.00;65101.44;4996907;28;45326;-50
2023/07/06 04:31:48;;;;;;;;;13.00;9.33;;;;;-143.57;100.00;65101.44;4996297;28;45366;-63
2023/07/06 04:34:14;;;;;;;;;10.67;9.67;;;;;-143.57;100.00;65101.44;4996364;28;54658;-51
2023/07/06 04:36:39;;;;;;;;;13.00;11.00;;;;;-143.57;100.00;65101.44;4996829;28;45254;-53
2023/07/06 04:39:07;;;;;;;;;16.67;12.00;;;;;-143.57;100.00;65101.44;4995900;28;45293;-44
2023/07/06 04:41:35;;;;;;;;;13.33;11.00;;;;;-143.57;100.00;65101.44;4997016;28;45338;-62
2023/07/06 04:44:00;;;;;;;;;15.00;11.67;;;;;-143.57;100.00;65101.44;4995521;28;46165;-48
2023/07/06 04:46:26;;;;;;;;;14.00;9.00;;;;;-143.57;100.00;65101.44;4996723;28;45374;-59
2023/07/06 04:48:53;;;;;;;;;12.00;12.00;;;;;-143.57;100.00;65101.44;4982451;28;45440;-44
2023/07/06 04:51:18;;;;;;;;;10.67;8.67;;;;;-143.57;100.00;65101.44;5003593;28;45302;-50
2023/07/06 04:53:44;;;;;;;;;10.33;10.33;;;;;-143.57;100.00;65101.44;5003006;28;46042;-44
2023/07/06 04:56:09;;;;;;;;;14.67;8.00;;;;;-143.57;100.00;65101.44;5003138;28;45223;-56
2023/07/06 04:58:35;;;;;;;;;9.00;7.00;;;;;-143.57;100.00;65101.44;5003604;28;45289;-48
2023/07/06 05:01:05;;;;;;;;;12.67;9.67;;;;;-143.57;100.00;65101.44;5002770;28;45283;-59
2023/07/06 05:03:31;;;;;;;;;9.67;7.67;;;;;-143.57;100.00;65101.44;5002946;28;46172;-44
2023/07/06 05:06:01;;;;;;;;;8.50;5.50;;;;;-143.57;100.00;65101.44;5003186;28;46244;-42
2023/07/06 05:08:27;;;;;;;;;9.33;7.00;;;;;-143.57;100.00;65101.44;4977677;28;45248;-42
2023/07/06 05:10:53;;;;;;;;;5.50;4.00;;;;;-143.57;100.00;65101.44;5003189;28;45346;-42
2023/07/06 05:13:19;;;;;;;;;7.25;5.50;;;;;-143.57;100.00;65101.44;5002908;28;45902;-40
2023/07/06 05:15:45;;;;;;;;;10.50;5.00;;;;;-143.57;100.00;65101.44;5011201;28;45423;-48
2023/07/06 05:18:10;;;;;;;;;5.75;5.75;;;;;-143.57;100.00;65101.44;5022036;28;45876;-47
2023/07/06 05:20:36;;;;;;;;;8.75;5.75;;;;;-143.57;100.00;65101.44;5023148;28;45322;-46
2023/07/06 05:23:03;;;;;;;;;6.75;5.00;;;;;-143.57;100.00;65101.44;5022761;28;45425;-45
2023/07/06 05:25:29;;;;;;;;;5.25;5.00;;;;;-143.57;100.00;65101.44;5022397;28;45378;-58
2023/07/06 05:27:54;;;;;;;;;6.00;6.00;;;;;-143.57;100.00;65101.44;5022897;28;45382;-52
2023/07/06 05:30:20;;;;;;;;;7.50;6.50;;;;;-143.57;100.00;65101.44;5023149;28;45333;-43
2023/07/06 05:32:45;;;;;;;;;9.00;6.00;;;;;-143.57;100.00;65101.44;5022517;28;47014;-53
2023/07/06 05:35:13;;;;;;;;;5.00;5.00;;;;;-143.57;100.00;65101.44;5022619;28;45331;-47
2023/07/06 05:37:40;;;;;;;;;6.00;5.00;;;;;-143.57;100.00;65101.44;5022669;28;45396;-58
2023/07/06 05:40:07;;;;;;;;;6.50;5.00;;;;;-143.57;100.00;65101.44;5022757;28;45362;-47
2023/07/06 05:42:33;;;;;;;;;10.75;6.75;;;;;-143.57;100.00;65101.44;5021415;28;46205;-42
2023/07/06 05:44:59;;;;;;;;;33.67;28.67;;;;;-143.57;100.00;65101.44;5022839;28;45374;-47
2023/07/06 05:47:24;;;;;;;;;17.33;13.33;;;;;-143.57;100.00;65101.44;5022799;28;45216;-42
2023/07/06 05:49:50;;;;;;;;;52.33;40.67;;;;;-143.57;100.00;65101.44;5022782;28;45421;-47
2023/07/06 05:52:15;;;;;;;;;5.75;5.00;;;;;-143.57;100.00;65101.44;5022432;28;46409;-44
2023/07/06 05:54:41;;;;;;;;;7.00;5.00;;;;;-143.57;100.00;65101.44;5022390;28;45269;-50
2023/07/06 05:57:08;;;;;;;;;7.25;6.00;;;;;-143.57;100.00;65101.44;5022421;28;45296;-42
2023/07/06 05:59:34;;;;;;;;;6.25;5.50;;;;;-143.57;100.00;65101.44;5021852;28;45302;-47
2023/07/06 06:01:59;;;;;;;;;4.00;4.00;;;;;-143.57;100.00;65101.44;5019290;28;45381;-55
2023/07/06 06:04:25;;;;;;;;;5.00;4.75;;;;;-143.57;100.00;65101.44;5018970;28;45334;-45
2023/07/06 06:06:54;;;;;;;;;6.50;3.00;;;;;-143.57;100.00;65101.44;5019329;28;45397;-42
2023/07/06 06:09:21;;;;;;;;;4.00;3.00;;;;;-143.57;100.00;65101.44;5018475;28;45228;-48
2023/07/06 06:11:50;;;;;;;;;6.50;4.50;;;;;-143.57;100.00;65101.44;5018667;28;47222;-42
2023/07/06 06:14:16;;;;;;;;;3.50;3.25;;;;;-143.57;100.00;65101.44;5018911;28;45354;-55
2023/07/06 06:16:42;;;;;;;;;5.00;4.00;;;;;-143.57;100.00;65101.44;5018716;28;45433;-47
2023/07/06 06:19:08;;;;;;;;;3.75;3.75;;;;;-143.57;100.00;65101.44;5019165;28;45475;-43
2023/07/06 06:21:34;;;;;;;;;2.50;2.50;;;;;-143.57;100.00;65101.44;5018939;28;46274;-44
2023/07/06 06:24:01;;;;;;;;;8.75;5.75;;;;;-143.57;100.00;65101.44;5018139;28;45380;-43
2023/07/06 06:26:27;;;;;;;;;3.50;3.00;;;;;-143.57;100.00;65101.44;5018631;28;45462;-42
2023/07/06 06:28:53;;;;;;;;;5.75;4.00;;;;;-143.57;100.00;65101.44;5019119;28;45260;-45
2023/07/06 06:31:19;;;;;;;;;4.75;4.00;;;;;-143.57;100.00;65101.44;5018503;28;45447;-43
2023/07/06 06:33:45;;;;;;;;;6.75;4.75;;;;;-143.57;100.00;65101.44;5017658;28;45501;-52
2023/07/06 06:36:16;;;;;;;;;7.25;4.00;;;;;-143.57;100.00;65101.44;5018794;28;45227;-54
2023/07/06 06:38:41;;;;;;;;;5.00;3.00;;;;;-143.57;100.00;65101.44;5018927;28;45393;-46
2023/07/06 06:41:07;;;;;;;;;7.75;4.00;;;;;-143.57;100.00;65101.44;5018103;28;46084;-45
2023/07/06 06:43:38;;;;;;;;;6.50;3.75;;;;;-143.57;100.00;65101.44;5018384;28;45238;-42
2023/07/06 06:46:07;;;;;;;;;4.25;3.75;;;;;-143.57;100.00;65101.44;5018115;28;45310;-42
2023/07/06 06:48:32;;;;;;;;;3.50;3.50;;;;;-143.57;100.00;65101.44;5016713;28;45369;-47
2023/07/06 06:50:59;;;;;;;;;7.00;5.00;;;;;-143.57;100.00;65101.44;5014949;28;46327;-49
2023/07/06 06:53:26;;;;;;;;;8.00;4.80;;;;;-143.57;100.00;65101.44;5026620;28;45341;-43
2023/07/06 06:55:52;;;;;;;;;3.80;3.40;;;;;-143.57;100.00;65101.44;5028857;28;45619;-49
2023/07/06 06:58:18;;;;;;;;;4.80;3.40;;;;;-143.57;100.00;65101.44;5015055;28;46318;-61
2023/07/06 07:00:44;;;;;;;;;3.40;3.40;;;;;-143.57;100.00;65101.44;5015030;28;46421;-54
2023/07/06 07:03:11;;;;;;;;;4.25;4.00;;;;;-143.57;100.00;65101.44;5019569;28;45390;-57
2023/07/06 07:05:37;;;;;;;;;5.40;4.00;;;;;-143.57;100.00;65101.44;5016572;28;45523;-42
2023/07/06 07:08:03;;;;;;;;;3.00;3.00;;;;;-143.57;100.00;65101.44;5034848;28;45919;-45
2023/07/06 07:10:29;;;;;;;;;19.00;16.50;;;;;-143.57;100.00;65101.44;5033950;28;46465;-48
2023/07/06 07:12:55;;;;;;;;;17.80;14.80;;;;;-143.57;100.00;65101.44;5032730;28;45762;-56
2023/07/06 07:15:21;;;;;;;;;2.25;2.25;;;;;-143.57;100.00;65101.44;5034234;28;45459;-58
2023/07/06 07:17:46;;;;;;;;;2.50;2.50;;;;;-143.57;100.00;65101.44;5025307;28;45573;-52
2023/07/06 07:20:13;;;;;;;;;3.75;3.75;;;;;-143.57;100.00;65101.44;5014768;28;45730;-64
2023/07/06 07:22:39;;;;;;;;;2.80;2.80;;;;;-143.57;100.00;65101.44;5014590;28;45433;-62
2023/07/06 07:25:05;;;;;;;;;1.80;1.80;;;;;-143.57;100.00;65101.44;5014962;28;45379;-55
2023/07/06 07:27:34;;;;;;;;;4.20;3.60;;;;;-143.57;100.00;65101.44;5014702;28;45410;-47
2023/07/06 07:30:00;;;;;;;;;4.40;2.20;;;;;-143.57;100.00;65101.44;5014536;28;46459;-51
2023/07/06 07:32:29;;;;;;;;;2.20;2.20;;;;;-143.57;100.00;65101.44;5014672;28;45539;-43
2023/07/06 07:34:56;;;;;;;;;2.80;2.00;;;;;-143.57;100.00;65101.44;5014629;28;45453;-43
2023/07/06 07:37:21;;;;;;;;;2.60;2.00;;;;;-143.57;100.00;65101.44;5015015;28;45485;-49
2023/07/06 07:39:48;;;;;;;;;3.25;3.25;;;;;-143.57;100.00;65101.44;5014470;28;46123;-42
2023/07/06 07:42:16;;;;;;;;;5.20;3.60;;;;;-143.57;100.00;65101.44;5022742;28;46542;-42
2023/07/06 07:44:44;;;;;;;;;4.00;3.40;;;;;-143.57;100.00;65101.44;5015074;28;45446;-43
2023/07/06 07:47:10;;;;;;;;;4.60;2.80;;;;;-143.57;100.00;65101.44;5028721;28;45469;-43
2023/07/06 07:49:37;;;;;;;;;2.80;2.80;;;;;-143.57;100.00;65101.44;5033693;28;45372;-43
2023/07/06 07:52:03;;;;;;;;;5.80;4.20;;;;;-143.57;100.00;65101.44;5021535;28;45632;-43
2023/07/06 07:54:29;;;;;;;;;4.20;3.00;;;;;-143.57;100.00;65101.44;5034980;28;45543;-45
2023/07/06 07:56:56;;;;;;;;;2.40;2.40;;;;;-143.57;100.00;65101.44;5035587;28;46070;-43
2023/07/06 07:59:23;;;;;;;;;5.60;3.80;;;;;-143.57;100.00;65101.44;5016401;28;46016;-43
2023/07/06 08:01:50;;;;;;;;;5.60;5.60;;;;;-143.57;100.00;65101.44;5014305;28;45418;-42
2023/07/06 08:04:16;;;;;;;;;4.00;3.40;;;;;-143.57;100.00;65101.44;5013607;28;45502;-44
2023/07/06 08:06:42;;;;;;;;;4.00;4.00;;;;;-143.57;100.00;65101.44;5014573;28;45502;-43
2023/07/06 08:09:09;;;;;;;;;0.00;0.00;;;;;-143.57;100.00;65101.44;5014311;28;45418;-43
2023/07/06 08:11:38;;;;;;;;;3.60;3.20;;;;;-143.57;100.00;65101.44;5020369;28;45509;-44
2023/07/06 08:14:08;;;;;;;;;3.40;3.40;;;;;-143.57;100.00;65101.44;5029161;28;45437;-43
2023/07/06 08:16:33;;;;;;;;;2.80;1.80;;;;;-143.57;100.00;65101.44;5033986;28;45784;-49
2023/07/06 08:19:02;;;;;;;;;3.00;3.00;;;;;-143.57;100.00;65101.44;5033503;28;45837;-43
2023/07/06 08:21:28;;;;;;;;;2.20;2.20;;;;;-143.57;100.00;65101.44;5030788;28;45488;-45
2023/07/06 08:23:54;;;;;;;;;4.00;2.75;;;;;-143.57;100.00;65101.44;5013151;28;45479;-45
2023/07/06 08:26:20;;;;;;;;;4.20;2.80;;;;;-143.57;100.00;65101.44;5014306;28;45454;-46
2023/07/06 08:28:46;;;;;;;;;5.50;3.00;;;;;-143.57;100.00;65101.44;5011521;28;46109;-48
2023/07/06 08:31:17;;;;;;;;;1.50;1.50;;;;;-143.57;100.00;65101.44;5014078;28;45380;-49
2023/07/06 08:33:43;;;;;;;;;2.80;2.80;;;;;-143.57;100.00;65101.44;5028562;28;45555;-55
2023/07/06 08:36:09;;;;;;;;;3.00;3.00;;;;;-143.57;100.00;65101.44;5033811;28;45385;-53
2023/07/06 08:38:38;;;;;;;;;6.60;3.60;;;;;-143.57;100.00;65101.44;5033536;28;45594;-48
2023/07/06 08:41:29;;;;;;;;;3.40;3.40;;;;;-143.57;100.00;65101.44;5032495;28;45311;-47
2023/07/06 08:43:56;;;;;;;;;2.40;2.40;;;;;-143.57;100.00;65101.44;5032184;28;46040;-48
2023/07/06 08:46:22;;;;;;;;;0.40;0.00;;;;;-143.57;100.00;65101.44;5033430;28;45400;-46
2023/07/06 08:48:47;;;;;;;;;4.60;2.40;;;;;-143.57;100.00;65101.44;5033154;28;46269;-50
2023/07/06 08:51:18;;;;;;;;;1.75;1.75;;;;;-143.57;100.00;65101.44;5032988;28;45392;-52
2023/07/06 08:54:18;;;;;;;;;7.40;4.40;;;;;-143.57;100.00;65101.44;5032775;28;45477;-57
2023/07/06 08:56:47;;;;;;;;;2.80;2.80;;;;;-143.57;100.00;65101.44;5033403;28;45871;-43
2023/07/06 08:59:20;;;;;;;;;5.00;3.40;;;;;-143.57;100.00;65101.44;5032607;28;46918;-57
2023/07/06 09:01:46;;;;;;;;;6.00;3.80;;;;;-143.57;100.00;65101.44;5011934;28;45436;-47
2023/07/06 09:04:15;;;;;;;;;3.80;2.00;;;;;-143.57;100.00;65101.44;5031256;28;45472;-45
2023/07/06 09:06:52;;;;;;;;;2.80;2.80;;;;;-143.57;100.00;65101.44;5036803;28;45487;-48
2023/07/06 09:09:18;;;;;;;;;2.80;2.40;;;;;-143.57;100.00;65101.44;5036337;28;46068;-49
2023/07/06 09:11:45;;;;;;;;;3.25;3.00;;;;;-143.57;100.00;65101.44;5036261;28;45357;-54
2023/07/06 09:14:13;;;;;;;;;1.00;1.00;;;;;-143.57;100.00;65101.44;5036191;28;45791;-48
2023/07/06 09:16:55;;;;;;;;;2.60;2.60;;;;;-143.57;100.00;65101.44;5035814;28;45568;-52
2023/07/06 09:19:22;;;;;;;;;2.00;2.00;;;;;-143.57;100.00;65101.44;5036145;28;46400;-45
2023/07/06 09:21:53;;;;;;;;;2.80;1.80;;;;;-143.57;100.00;65101.44;5035982;28;45235;-55
2023/07/06 09:24:19;;;;;;;;;5.00;3.80;;;;;-143.57;100.00;65101.44;5035418;28;45573;-46
2023/07/06 09:26:46;;;;;;;;;2.40;2.40;;;;;-143.57;100.00;65101.44;5036111;28;45448;-62
2023/07/06 09:29:30;;;;;;;;;6.80;3.00;;;;;-143.57;100.00;65101.44;5035318;28;46509;-62
2023/07/06 09:32:17;;;;;;;;;2.20;2.20;;;;;-143.57;100.00;65101.44;5035124;28;45313;-59
2023/07/06 09:34:44;;;;;;;;;8.00;6.00;;;;;-143.57;100.00;65101.44;5037416;28;45348;-57
2023/07/06 09:37:14;;;;;;;;;5.00;3.00;;;;;-143.57;100.00;65101.44;5039702;28;45371;-59
2023/07/06 09:39:57;;;;;;;;;7.80;4.00;;;;;-143.57;100.00;65101.44;5039441;28;45439;-52
2023/07/06 09:42:24;;;;;;;;;3.00;2.80;;;;;-143.57;100.00;65101.44;5039482;28;45445;-58
2023/07/06 09:44:50;;;;;;;;;2.40;2.40;;;;;-143.57;100.00;65101.44;5039437;28;45412;-45
2023/07/06 09:47:16;;;;;;;;;4.25;4.00;;;;;-143.57;100.00;65101.44;5039511;28;45389;-48
2023/07/06 09:49:52;;;;;;;;;3.80;2.80;;;;;-143.57;100.00;65101.44;5038817;28;45781;-60
2023/07/06 09:52:19;;;;;;;;;4.20;2.60;;;;;-143.57;100.00;65101.44;5001110;28;45419;-66
2023/07/06 09:54:50;;;;;;;;;1.80;1.80;;;;;-143.57;100.00;65101.44;5018088;28;45277;-45
2023/07/06 09:57:16;;;;;;;;;3.00;2.00;;;;;-143.57;100.00;65101.44;5018858;28;45296;-43
2023/07/06 09:59:48;;;;;;;;;1.60;1.40;;;;;-143.57;100.00;65101.44;5018112;28;45351;-44
2023/07/06 10:02:59;;;;;;;;;3.00;2.40;;;;;-143.57;100.00;65101.44;5018934;28;45232;-55
2023/07/06 10:05:31;;;;;;;;;2.20;2.20;;;;;-143.57;100.00;65101.44;5018303;28;45351;-47
2023/07/06 10:08:14;;;;;;;;;3.00;2.00;;;;;-143.57;100.00;65101.44;5019036;28;45396;-45
2023/07/06 10:10:58;;;;;;;;;2.20;1.20;;;;;-143.57;100.00;65101.44;5018603;28;45429;-47
2023/07/06 10:13:33;;;;;;;;;6.60;3.00;;;;;-143.57;100.00;65101.44;5018044;28;45438;-49
2023/07/06 10:16:21;;;;;;;;;2.80;1.80;;;;;-143.57;100.00;65101.44;5018710;28;45382;-49
2023/07/06 10:18:52;;;;;;;;;4.20;3.00;;;;;-143.57;100.00;65101.44;5018923;28;45458;-47
2023/07/06 10:21:31;;;;;;;;;3.40;2.40;;;;;-143.57;100.00;65101.44;5000915;28;47184;-44
2023/07/06 10:24:12;;;;;;;;;2.20;2.20;;;;;-143.57;100.00;65101.44;5018648;28;45309;-42
2023/07/06 10:26:48;;;;;;;;;2.60;2.60;;;;;-143.57;100.00;65101.44;5019008;28;45454;-47
2023/07/06 10:29:21;;;;;;;;;3.80;3.80;;;;;-143.57;100.00;65101.44;5018268;28;45481;-48
2023/07/06 10:31:55;;;;;;;;;2.80;2.80;;;;;-143.57;100.00;65101.44;5017692;28;45670;-45
2023/07/06 10:34:38;;;;;;;;;3.20;2.80;;;;;-143.57;100.00;65101.44;5018568;28;45222;-48
2023/07/06 10:37:05;;;;;;;;;2.40;1.60;;;;;-143.57;100.00;65101.44;5018577;28;45359;-43
2023/07/06 10:39:31;;;;;;;;;2.00;2.00;;;;;-143.57;100.00;65101.44;5018289;28;45562;-45
2023/07/06 10:42:01;;;;;;;;;3.50;1.50;;;;;-143.57;100.00;65101.44;5017497;28;45569;-41
2023/07/06 10:44:44;;;;;;;;;4.80;3.00;;;;;-143.57;100.00;65101.44;5016806;28;45389;-46
2023/07/06 10:47:28;;;;;;;;;2.80;2.80;;;;;-143.57;100.00;65101.44;5024388;28;45519;-44
2023/07/06 10:50:32;;;;;;;;;3.40;2.60;;;;;-143.57;100.00;65101.44;5015085;28;45735;-44
2023/07/06 10:53:01;;;;;;;;;4.40;4.00;;;;;-143.57;100.00;65101.44;5032552;28;46170;-42
2023/07/06 10:55:36;;;;;;;;;5.20;2.40;;;;;-143.57;100.00;65101.44;5034182;28;45718;-41
2023/07/06 10:58:21;;;;;;;;;2.80;2.80;;;;;-143.57;100.00;65101.44;5032038;28;45438;-43
2023/07/06 11:00:47;;;;;;;;;3.00;3.00;;;;;-143.57;100.00;65101.44;5027643;28;45528;-42
2023/07/06 11:03:17;;;;;;;;;1.50;1.50;;;;;-143.57;100.00;65101.44;5025040;28;46198;-43
2023/07/06 11:05:54;;;;;;;;;2.20;2.20;;;;;-143.57;100.00;65101.44;5016854;28;45855;-50
2023/07/06 11:08:57;;;;;;;;;3.40;2.00;;;;;-143.57;100.00;65101.44;5034088;28;45519;-41
2023/07/06 11:11:26;;;;;;;;;6.00;3.00;;;;;-143.57;100.00;65101.44;5034342;28;45444;-50
2023/07/06 11:13:53;;;;;;;;;3.60;3.60;;;;;-143.57;100.00;65101.44;5028239;28;47181;-49
2023/07/06 11:16:28;;;;;;;;;6.75;5.00;;;;;-143.57;100.00;65101.44;5028366;28;45428;-43